Weather at Chatham Islands / Tuuta Airport

Public forecast

Using degrees Celsius for public forecast. Weather courtesy of forecast.io.

Closest aviation weather report (METAR) to Chatham Islands / Tuuta Airport

Closest report is Wellington International Airport, 413.6 nm (765.9 km) WNW.

2024/05/29 11:30 (retrieved 15 minutes ago)

NZWN 291130Z AUTO 20028KT 6000 SCT036/// BKN070/// 12/07 Q1011

Closest aviation forecast (TAF) to Chatham Islands / Tuuta Airport

Closest forecast is Wellington International Airport, 413.6 nm (765.9 km) WNW.

2024/05/29 09:30 (retrieved 2 hours ago)

TAF NZWN 290811Z 2909/3012 18025G35KT 9999 -SHRA SCT030 TEMPO 2909/2912 7000 SHRA BECMG 2915/2917 19015KT BECMG 3002/3004 36012KT